sensor_id;sensor_type;location;lat;lon;timestamp;pressure;altitude;pressure_sealevel;temperature;humidity
74722;BME280;63470;49.826;6.740;2023-11-21T00:01:57;99509.01;;;10.37;70.90
74722;BME280;63470;49.826;6.740;2023-11-21T00:04:29;99506.81;;;10.39;70.90
74722;BME280;63470;49.826;6.740;2023-11-21T00:06:57;99508.53;;;10.40;70.89
74722;BME280;63470;49.826;6.740;2023-11-21T00:09:28;99510.14;;;10.41;70.85
74722;BME280;63470;49.826;6.740;2023-11-21T00:12:04;99513.93;;;10.41;70.89
74722;BME280;63470;49.826;6.740;2023-11-21T00:14:29;99516.06;;;10.42;70.91
74722;BME280;63470;49.826;6.740;2023-11-21T00:16:59;99514.12;;;10.43;70.92
74722;BME280;63470;49.826;6.740;2023-11-21T00:19:30;99519.02;;;10.45;70.88
74722;BME280;63470;49.826;6.740;2023-11-21T00:22:00;99518.02;;;10.46;70.91
74722;BME280;63470;49.826;6.740;2023-11-21T00:24:31;99515.33;;;10.48;70.92
74722;BME280;63470;49.826;6.740;2023-11-21T00:27:01;99523.57;;;10.48;70.89
74722;BME280;63470;49.826;6.740;2023-11-21T00:29:32;99527.90;;;10.49;70.91
74722;BME280;63470;49.826;6.740;2023-11-21T00:32:04;99528.07;;;10.49;70.92
74722;BME280;63470;49.826;6.740;2023-11-21T00:34:40;99525.55;;;10.48;70.93
74722;BME280;63470;49.826;6.740;2023-11-21T00:37:08;99526.14;;;10.47;70.95
74722;BME280;63470;49.826;6.740;2023-11-21T00:39:35;99522.17;;;10.48;70.98
74722;BME280;63470;49.826;6.740;2023-11-21T00:42:06;99528.62;;;10.50;70.96
74722;BME280;63470;49.826;6.740;2023-11-21T00:44:37;99527.84;;;10.52;70.86
74722;BME280;63470;49.826;6.740;2023-11-21T00:47:04;99528.34;;;10.51;70.86
74722;BME280;63470;49.826;6.740;2023-11-21T00:49:35;99525.79;;;10.50;70.84
74722;BME280;63470;49.826;6.740;2023-11-21T00:52:06;99528.39;;;10.50;70.81
74722;BME280;63470;49.826;6.740;2023-11-21T00:54:36;99527.90;;;10.49;70.83
74722;BME280;63470;49.826;6.740;2023-11-21T00:57:06;99532.92;;;10.49;70.81
74722;BME280;63470;49.826;6.740;2023-11-21T00:59:44;99532.27;;;10.50;70.76
74722;BME280;63470;49.826;6.740;2023-11-21T01:02:11;99533.22;;;10.50;70.73
74722;BME280;63470;49.826;6.740;2023-11-21T01:04:38;99539.64;;;10.51;70.70
74722;BME280;63470;49.826;6.740;2023-11-21T01:07:08;99542.84;;;10.52;70.64
74722;BME280;63470;49.826;6.740;2023-11-21T01:09:39;99542.11;;;10.52;70.63
74722;BME280;63470;49.826;6.740;2023-11-21T01:12:09;99546.08;;;10.51;70.61
74722;BME280;63470;49.826;6.740;2023-11-21T01:14:40;99542.21;;;10.48;70.61
74722;BME280;63470;49.826;6.740;2023-11-21T01:17:11;99550.44;;;10.45;70.68
74722;BME280;63470;49.826;6.740;2023-11-21T01:19:41;99550.58;;;10.43;70.71
74722;BME280;63470;49.826;6.740;2023-11-21T01:22:17;99554.66;;;10.44;70.67
74722;BME280;63470;49.826;6.740;2023-11-21T01:24:42;99558.57;;;10.44;70.64
74722;BME280;63470;49.826;6.740;2023-11-21T01:27:12;99563.98;;;10.42;70.68
74722;BME280;63470;49.826;6.740;2023-11-21T01:29:43;99568.69;;;10.42;70.67
74722;BME280;63470;49.826;6.740;2023-11-21T01:32:13;99573.17;;;10.44;70.64
74722;BME280;63470;49.826;6.740;2023-11-21T01:34:44;99575.68;;;10.45;70.61
74722;BME280;63470;49.826;6.740;2023-11-21T01:37:15;99582.61;;;10.45;70.60
74722;BME280;63470;49.826;6.740;2023-11-21T01:39:45;99583.97;;;10.44;70.62
74722;BME280;63470;49.826;6.740;2023-11-21T01:42:21;99586.79;;;10.43;70.65
74722;BME280;63470;49.826;6.740;2023-11-21T01:44:47;99590.62;;;10.41;70.69
74722;BME280;63470;49.826;6.740;2023-11-21T01:47:18;99591.45;;;10.41;70.65
74722;BME280;63470;49.826;6.740;2023-11-21T01:49:47;99595.78;;;10.40;70.67
74722;BME280;63470;49.826;6.740;2023-11-21T01:52:18;99592.99;;;10.39;70.71
74722;BME280;63470;49.826;6.740;2023-11-21T01:54:48;99595.47;;;10.39;70.72
74722;BME280;63470;49.826;6.740;2023-11-21T01:57:19;99596.00;;;10.38;70.76
74722;BME280;63470;49.826;6.740;2023-11-21T01:59:50;99596.68;;;10.37;70.81
74722;BME280;63470;49.826;6.740;2023-11-21T02:04:50;99596.94;;;10.34;70.80
74722;BME280;63470;49.826;6.740;2023-11-21T02:07:21;99595.42;;;10.31;70.84
74722;BME280;63470;49.826;6.740;2023-11-21T02:09:52;99599.44;;;10.29;70.81
74722;BME280;63470;49.826;6.740;2023-11-21T02:12:21;99602.59;;;10.25;70.87
74722;BME280;63470;49.826;6.740;2023-11-21T02:14:52;99608.04;;;10.21;70.93
74722;BME280;63470;49.826;6.740;2023-11-21T02:17:22;99609.73;;;10.20;70.98
74722;BME280;63470;49.826;6.740;2023-11-21T02:19:53;99617.95;;;10.18;70.99
74722;BME280;63470;49.826;6.740;2023-11-21T02:22:30;99615.81;;;10.17;70.99
74722;BME280;63470;49.826;6.740;2023-11-21T02:24:58;99614.95;;;10.16;70.96
74722;BME280;63470;49.826;6.740;2023-11-21T02:27:29;99619.03;;;10.16;70.94
74722;BME280;63470;49.826;6.740;2023-11-21T02:30:00;99616.22;;;10.17;70.95
74722;BME280;63470;49.826;6.740;2023-11-21T02:32:26;99621.05;;;10.18;70.97
74722;BME280;63470;49.826;6.740;2023-11-21T02:34:56;99625.25;;;10.18;70.94
74722;BME280;63470;49.826;6.740;2023-11-21T02:37:26;99626.73;;;10.18;70.93
74722;BME280;63470;49.826;6.740;2023-11-21T02:39:57;99632.09;;;10.18;70.93
74722;BME280;63470;49.826;6.740;2023-11-21T02:42:27;99636.55;;;10.18;70.89
74722;BME280;63470;49.826;6.740;2023-11-21T02:44:58;99638.81;;;10.17;70.87
74722;BME280;63470;49.826;6.740;2023-11-21T02:47:29;99641.17;;;10.15;70.86
74722;BME280;63470;49.826;6.740;2023-11-21T02:52:37;99647.42;;;10.08;71.04
74722;BME280;63470;49.826;6.740;2023-11-21T02:55:00;99651.92;;;10.05;71.11
74722;BME280;63470;49.826;6.740;2023-11-21T02:57:30;99654.44;;;10.04;71.20
74722;BME280;63470;49.826;6.740;2023-11-21T03:00:01;99653.09;;;10.04;71.22
74722;BME280;63470;49.826;6.740;2023-11-21T03:02:31;99654.73;;;10.05;71.23
74722;BME280;63470;49.826;6.740;2023-11-21T03:05:02;99653.53;;;10.06;71.23
74722;BME280;63470;49.826;6.740;2023-11-21T03:07:33;99655.96;;;10.05;71.23
74722;BME280;63470;49.826;6.740;2023-11-21T03:10:05;99653.75;;;10.04;71.21
74722;BME280;63470;49.826;6.740;2023-11-21T03:12:38;99656.52;;;10.02;71.19
74722;BME280;63470;49.826;6.740;2023-11-21T03:15:07;99657.34;;;9.98;71.18
74722;BME280;63470;49.826;6.740;2023-11-21T03:17:35;99655.91;;;9.93;71.21
74722;BME280;63470;49.826;6.740;2023-11-21T03:20:07;99654.72;;;9.91;71.25
74722;BME280;63470;49.826;6.740;2023-11-21T03:22:37;99666.79;;;9.93;71.20
74722;BME280;63470;49.826;6.740;2023-11-21T03:25:11;99665.27;;;9.95;71.10
74722;BME280;63470;49.826;6.740;2023-11-21T03:27:39;99669.95;;;9.96;71.01
74722;BME280;63470;49.826;6.740;2023-11-21T03:30:08;99676.18;;;9.97;70.93
74722;BME280;63470;49.826;6.740;2023-11-21T03:32:46;99680.55;;;9.97;70.89
74722;BME280;63470;49.826;6.740;2023-11-21T03:35:10;99684.02;;;9.96;70.87
74722;BME280;63470;49.826;6.740;2023-11-21T03:37:42;99679.23;;;9.94;70.90
74722;BME280;63470;49.826;6.740;2023-11-21T03:40:10;99680.23;;;9.93;70.93
74722;BME280;63470;49.826;6.740;2023-11-21T03:42:40;99686.83;;;9.92;70.96
74722;BME280;63470;49.826;6.740;2023-11-21T03:45:13;99685.88;;;9.91;70.97
74722;BME280;63470;49.826;6.740;2023-11-21T03:47:41;99689.83;;;9.91;70.97
74722;BME280;63470;49.826;6.740;2023-11-21T03:50:12;99692.39;;;9.90;70.98
74722;BME280;63470;49.826;6.740;2023-11-21T03:52:43;99697.38;;;9.88;70.99
74722;BME280;63470;49.826;6.740;2023-11-21T03:55:16;99696.97;;;9.85;71.03
74722;BME280;63470;49.826;6.740;2023-11-21T03:57:48;99707.80;;;9.83;71.09
74722;BME280;63470;49.826;6.740;2023-11-21T04:00:14;99705.46;;;9.81;71.11
74722;BME280;63470;49.826;6.740;2023-11-21T04:02:45;99706.86;;;9.80;71.09
74722;BME280;63470;49.826;6.740;2023-11-21T04:05:14;99711.44;;;9.79;71.05
74722;BME280;63470;49.826;6.740;2023-11-21T04:07:45;99717.94;;;9.79;nan
74722;BME280;63470;49.826;6.740;2023-11-21T04:10:17;99713.29;;;9.80;71.02
74722;BME280;63470;49.826;6.740;2023-11-21T04:12:46;99713.62;;;9.81;71.00
74722;BME280;63470;49.826;6.740;2023-11-21T04:15:18;99719.71;;;9.81;71.01
74722;BME280;63470;49.826;6.740;2023-11-21T04:17:55;99720.33;;;9.83;71.05
74722;BME280;63470;49.826;6.740;2023-11-21T04:20:22;99722.44;;;9.84;71.03
74722;BME280;63470;49.826;6.740;2023-11-21T04:22:48;99729.11;;;9.84;71.06
74722;BME280;63470;49.826;6.740;2023-11-21T04:25:18;99733.39;;;9.84;71.06
74722;BME280;63470;49.826;6.740;2023-11-21T04:27:49;99736.44;;;9.85;71.06
74722;BME280;63470;49.826;6.740;2023-11-21T04:30:20;99737.34;;;9.85;71.08
74722;BME280;63470;49.826;6.740;2023-11-21T04:32:51;99742.66;;;9.83;71.15
74722;BME280;63470;49.826;6.740;2023-11-21T04:35:21;99752.84;;;9.84;71.15
74722;BME280;63470;49.826;6.740;2023-11-21T04:37:51;99760.62;;;9.83;71.16
74722;BME280;63470;49.826;6.740;2023-11-21T04:40:26;99763.39;;;9.84;71.13
74722;BME280;63470;49.826;6.740;2023-11-21T04:42:52;99767.92;;;9.85;71.10
74722;BME280;63470;49.826;6.740;2023-11-21T04:45:22;99770.64;;;9.85;71.12
74722;BME280;63470;49.826;6.740;2023-11-21T04:47:53;99771.95;;;9.84;71.12
74722;BME280;63470;49.826;6.740;2023-11-21T04:50:24;99772.61;;;9.85;71.07
74722;BME280;63470;49.826;6.740;2023-11-21T04:52:55;99779.45;;;9.86;71.04
74722;BME280;63470;49.826;6.740;2023-11-21T04:55:28;99787.45;;;9.85;71.03
74722;BME280;63470;49.826;6.740;2023-11-21T04:57:56;99784.89;;;9.84;71.02
74722;BME280;63470;49.826;6.740;2023-11-21T05:00:31;99787.56;;;9.84;70.99
74722;BME280;63470;49.826;6.740;2023-11-21T05:02:57;99786.74;;;9.83;70.94
74722;BME280;63470;49.826;6.740;2023-11-21T05:05:27;99788.92;;;9.81;70.97
74722;BME280;63470;49.826;6.740;2023-11-21T05:07:58;99787.98;;;9.79;70.97
74722;BME280;63470;49.826;6.740;2023-11-21T05:10:30;99789.09;;;9.76;71.03
74722;BME280;63470;49.826;6.740;2023-11-21T05:12:59;99791.36;;;9.74;71.07
74722;BME280;63470;49.826;6.740;2023-11-21T05:15:29;99792.14;;;9.73;71.08
74722;BME280;63470;49.826;6.740;2023-11-21T05:18:00;99794.11;;;9.73;71.09
74722;BME280;63470;49.826;6.740;2023-11-21T05:20:30;99791.97;;;9.73;71.14
74722;BME280;63470;49.826;6.740;2023-11-21T05:23:00;99795.52;;;9.73;71.19
74722;BME280;63470;49.826;6.740;2023-11-21T05:25:31;99802.89;;;9.74;71.12
74722;BME280;63470;49.826;6.740;2023-11-21T05:28:04;99801.57;;;9.75;71.09
74722;BME280;63470;49.826;6.740;2023-11-21T05:30:32;99803.05;;;9.75;71.09
74722;BME280;63470;49.826;6.740;2023-11-21T05:33:02;99808.05;;;9.76;71.07
74722;BME280;63470;49.826;6.740;2023-11-21T05:35:33;99815.08;;;9.76;nan
74722;BME280;63470;49.826;6.740;2023-11-21T05:38:03;99821.31;;;9.76;nan
74722;BME280;63470;49.826;6.740;2023-11-21T05:40:39;99821.09;;;9.75;71.00
74722;BME280;63470;49.826;6.740;2023-11-21T05:43:06;99823.23;;;9.75;70.92
74722;BME280;63470;49.826;6.740;2023-11-21T05:45:35;99826.73;;;9.73;70.88
74722;BME280;63470;49.826;6.740;2023-11-21T05:48:05;99825.95;;;9.71;70.87
74722;BME280;63470;49.826;6.740;2023-11-21T05:50:35;99825.38;;;9.67;70.84
74722;BME280;63470;49.826;6.740;2023-11-21T05:53:06;99827.18;;;9.62;70.85
74722;BME280;63470;49.826;6.740;2023-11-21T05:55:36;99831.54;;;9.57;70.93
74722;BME280;63470;49.826;6.740;2023-11-21T05:58:08;99834.91;;;9.54;70.99
74722;BME280;63470;49.826;6.740;2023-11-21T06:00:42;99840.41;;;9.51;71.05
74722;BME280;63470;49.826;6.740;2023-11-21T06:03:08;99843.83;;;9.49;71.11
74722;BME280;63470;49.826;6.740;2023-11-21T06:05:39;99845.89;;;9.47;71.08
74722;BME280;63470;49.826;6.740;2023-11-21T06:08:10;99845.77;;;9.45;71.05
74722;BME280;63470;49.826;6.740;2023-11-21T06:10:40;99849.70;;;9.43;71.05
74722;BME280;63470;49.826;6.740;2023-11-21T06:13:11;99856.16;;;9.41;71.08
74722;BME280;63470;49.826;6.740;2023-11-21T06:15:42;99858.66;;;9.39;71.15
74722;BME280;63470;49.826;6.740;2023-11-21T06:18:12;99857.92;;;9.39;71.23
74722;BME280;63470;49.826;6.740;2023-11-21T06:20:50;99862.50;;;9.39;71.25
74722;BME280;63470;49.826;6.740;2023-11-21T06:23:25;99864.48;;;9.39;71.21
74722;BME280;63470;49.826;6.740;2023-11-21T06:25:54;99870.27;;;9.39;71.17
74722;BME280;63470;49.826;6.740;2023-11-21T06:28:25;99876.78;;;9.38;71.18
74722;BME280;63470;49.826;6.740;2023-11-21T06:30:46;99875.22;;;9.38;71.17
74722;BME280;63470;49.826;6.740;2023-11-21T06:33:17;99872.17;;;9.38;71.13
74722;BME280;63470;49.826;6.740;2023-11-21T06:35:47;99881.39;;;9.39;71.13
74722;BME280;63470;49.826;6.740;2023-11-21T06:38:18;99882.22;;;9.38;71.14
74722;BME280;63470;49.826;6.740;2023-11-21T06:40:50;99890.58;;;9.40;71.11
74722;BME280;63470;49.826;6.740;2023-11-21T06:43:19;99896.59;;;9.40;71.07
74722;BME280;63470;49.826;6.740;2023-11-21T06:45:49;99898.56;;;9.40;71.04
74722;BME280;63470;49.826;6.740;2023-11-21T06:48:30;99897.83;;;9.41;70.99
74722;BME280;63470;49.826;6.740;2023-11-21T06:50:55;99902.41;;;9.42;70.90
74722;BME280;63470;49.826;6.740;2023-11-21T06:53:23;99907.97;;;9.44;70.80
74722;BME280;63470;49.826;6.740;2023-11-21T06:55:51;99912.42;;;9.44;70.78
74722;BME280;63470;49.826;6.740;2023-11-21T06:58:22;99921.64;;;9.44;70.78
74722;BME280;63470;49.826;6.740;2023-11-21T07:00:53;99920.84;;;9.43;70.78
74722;BME280;63470;49.826;6.740;2023-11-21T07:03:22;99925.95;;;9.42;70.81
74722;BME280;63470;49.826;6.740;2023-11-21T07:05:53;99933.50;;;9.44;70.79
74722;BME280;63470;49.826;6.740;2023-11-21T07:08:23;99946.19;;;9.45;70.74
74722;BME280;63470;49.826;6.740;2023-11-21T07:10:54;99952.28;;;9.45;70.74
74722;BME280;63470;49.826;6.740;2023-11-21T07:13:30;99956.23;;;9.45;70.75
74722;BME280;63470;49.826;6.740;2023-11-21T07:15:55;99958.34;;;9.46;70.74
74722;BME280;63470;49.826;6.740;2023-11-21T07:18:26;99961.22;;;9.47;70.72
74722;BME280;63470;49.826;6.740;2023-11-21T07:20:56;99966.88;;;9.48;70.65
74722;BME280;63470;49.826;6.740;2023-11-21T07:23:27;99975.63;;;9.47;70.66
74722;BME280;63470;49.826;6.740;2023-11-21T07:25:58;99973.33;;;9.47;70.68
74722;BME280;63470;49.826;6.740;2023-11-21T07:28:28;99979.47;;;9.48;70.65
74722;BME280;63470;49.826;6.740;2023-11-21T07:31:00;99975.32;;;9.50;70.62
74722;BME280;63470;49.826;6.740;2023-11-21T07:33:29;99978.38;;;9.51;70.58
74722;BME280;63470;49.826;6.740;2023-11-21T07:35:59;99984.62;;;9.51;70.51
74722;BME280;63470;49.826;6.740;2023-11-21T07:38:30;99986.69;;;9.49;70.55
74722;BME280;63470;49.826;6.740;2023-11-21T07:41:02;99983.76;;;9.49;70.62
74722;BME280;63470;49.826;6.740;2023-11-21T07:43:36;99988.12;;;9.49;70.63
74722;BME280;63470;49.826;6.740;2023-11-21T07:46:04;99998.44;;;9.52;70.62
74722;BME280;63470;49.826;6.740;2023-11-21T07:48:33;100001.45;;;9.54;70.63
74722;BME280;63470;49.826;6.740;2023-11-21T07:51:04;100000.62;;;9.60;70.55
74722;BME280;63470;49.826;6.740;2023-11-21T07:53:48;99998.95;;;9.65;70.48
74722;BME280;63470;49.826;6.740;2023-11-21T07:56:04;100003.83;;;9.70;70.40
74722;BME280;63470;49.826;6.740;2023-11-21T07:58:36;100011.02;;;9.75;70.34
74722;BME280;63470;49.826;6.740;2023-11-21T08:01:04;100016.34;;;9.77;70.34
74722;BME280;63470;49.826;6.740;2023-11-21T08:03:35;100018.94;;;9.79;70.43
74722;BME280;63470;49.826;6.740;2023-11-21T08:06:07;100025.11;;;9.85;70.45
74722;BME280;63470;49.826;6.740;2023-11-21T08:08:36;100027.40;;;9.92;70.34
74722;BME280;63470;49.826;6.740;2023-11-21T08:11:10;100026.39;;;9.96;70.26
74722;BME280;63470;49.826;6.740;2023-11-21T08:13:37;100033.77;;;9.99;70.22
74722;BME280;63470;49.826;6.740;2023-11-21T08:16:16;100035.39;;;10.00;70.20
74722;BME280;63470;49.826;6.740;2023-11-21T08:18:38;100040.62;;;10.03;70.19
74722;BME280;63470;49.826;6.740;2023-11-21T08:21:09;100041.09;;;10.05;70.20
74722;BME280;63470;49.826;6.740;2023-11-21T08:23:46;100041.96;;;10.07;70.23
74722;BME280;63470;49.826;6.740;2023-11-21T08:26:09;100040.44;;;10.11;70.25
74722;BME280;63470;49.826;6.740;2023-11-21T08:28:42;100044.21;;;10.18;70.25
74722;BME280;63470;49.826;6.740;2023-11-21T08:31:11;100052.20;;;10.27;70.27
74722;BME280;63470;49.826;6.740;2023-11-21T08:33:41;100051.85;;;10.37;70.24
74722;BME280;63470;49.826;6.740;2023-11-21T08:36:18;100047.08;;;10.46;70.11
74722;BME280;63470;49.826;6.740;2023-11-21T08:38:43;100046.69;;;10.53;70.05
74722;BME280;63470;49.826;6.740;2023-11-21T08:41:16;100044.02;;;10.58;70.00
74722;BME280;63470;49.826;6.740;2023-11-21T08:43:45;100045.30;;;10.66;69.99
74722;BME280;63470;49.826;6.740;2023-11-21T08:46:15;100050.02;;;10.73;69.92
74722;BME280;63470;49.826;6.740;2023-11-21T08:48:45;100043.87;;;10.79;69.85
74722;BME280;63470;49.826;6.740;2023-11-21T08:51:16;100048.33;;;10.84;69.88
74722;BME280;63470;49.826;6.740;2023-11-21T08:53:48;100053.66;;;10.89;69.75
74722;BME280;63470;49.826;6.740;2023-11-21T08:56:27;100055.06;;;10.89;69.78
74722;BME280;63470;49.826;6.740;2023-11-21T08:58:53;100062.48;;;10.90;69.89
74722;BME280;63470;49.826;6.740;2023-11-21T09:01:18;100062.07;;;10.94;69.92
74722;BME280;63470;49.826;6.740;2023-11-21T09:03:50;100067.98;;;10.99;69.90
74722;BME280;63470;49.826;6.740;2023-11-21T09:06:20;100063.89;;;11.06;69.92
74722;BME280;63470;49.826;6.740;2023-11-21T09:08:50;100065.38;;;11.13;69.88
74722;BME280;63470;49.826;6.740;2023-11-21T09:11:21;100072.06;;;11.21;69.84
74722;BME280;63470;49.826;6.740;2023-11-21T09:13:52;100084.23;;;11.27;69.75
74722;BME280;63470;49.826;6.740;2023-11-21T09:16:21;100088.36;;;11.32;69.64
74722;BME280;63470;49.826;6.740;2023-11-21T09:18:55;100090.52;;;11.31;69.54
74722;BME280;63470;49.826;6.740;2023-11-21T09:21:37;100093.19;;;11.27;69.70
74722;BME280;63470;49.826;6.740;2023-11-21T09:23:54;100092.12;;;11.22;69.80
74722;BME280;63470;49.826;6.740;2023-11-21T09:26:24;100090.84;;;11.21;69.94
74722;BME280;63470;49.826;6.740;2023-11-21T09:28:57;100101.34;;;11.23;69.91
74722;BME280;63470;49.826;6.740;2023-11-21T09:31:25;100103.64;;;11.24;69.91
74722;BME280;63470;49.826;6.740;2023-11-21T09:33:55;100107.48;;;11.26;69.95
74722;BME280;63470;49.826;6.740;2023-11-21T09:36:30;100108.10;;;11.25;69.98
74722;BME280;63470;49.826;6.740;2023-11-21T09:38:56;100105.01;;;11.26;70.10
74722;BME280;63470;49.826;6.740;2023-11-21T09:41:51;100109.05;;;11.33;70.12
74722;BME280;63470;49.826;6.740;2023-11-21T09:43:57;100114.62;;;11.45;70.02
74722;BME280;63470;49.826;6.740;2023-11-21T09:46:29;100120.93;;;11.54;69.91
74722;BME280;63470;49.826;6.740;2023-11-21T09:49:00;100121.75;;;11.62;69.80
74722;BME280;63470;49.826;6.740;2023-11-21T09:51:34;100124.87;;;11.68;69.81
74722;BME280;63470;49.826;6.740;2023-11-21T09:53:59;100126.02;;;11.72;69.72
74722;BME280;63470;49.826;6.740;2023-11-21T09:56:32;100127.95;;;11.74;69.71
74722;BME280;63470;49.826;6.740;2023-11-21T09:59:07;100122.75;;;11.74;69.76
74722;BME280;63470;49.826;6.740;2023-11-21T10:01:32;100123.69;;;11.77;69.84
74722;BME280;63470;49.826;6.740;2023-11-21T10:04:07;100129.11;;;11.89;69.78
74722;BME280;63470;49.826;6.740;2023-11-21T10:06:38;100134.38;;;12.00;69.71
74722;BME280;63470;49.826;6.740;2023-11-21T10:09:09;100137.08;;;12.09;69.72
74722;BME280;63470;49.826;6.740;2023-11-21T10:11:34;100140.47;;;12.22;69.62
74722;BME280;63470;49.826;6.740;2023-11-21T10:14:05;100134.80;;;12.34;69.53
74722;BME280;63470;49.826;6.740;2023-11-21T10:16:34;100133.52;;;12.50;69.43
74722;BME280;63470;49.826;6.740;2023-11-21T10:19:11;100135.98;;;12.63;69.34
74722;BME280;63470;49.826;6.740;2023-11-21T10:21:35;100140.56;;;12.72;69.30
74722;BME280;63470;49.826;6.740;2023-11-21T10:24:07;100145.77;;;12.81;69.22
74722;BME280;63470;49.826;6.740;2023-11-21T10:26:36;100145.69;;;12.81;69.18
74722;BME280;63470;49.826;6.740;2023-11-21T10:29:06;100143.75;;;12.79;69.30
74722;BME280;63470;49.826;6.740;2023-11-21T10:31:37;100144.77;;;12.81;69.33
74722;BME280;63470;49.826;6.740;2023-11-21T10:34:17;100139.91;;;12.83;69.32
74722;BME280;63470;49.826;6.740;2023-11-21T10:36:38;100140.28;;;12.85;69.44
74722;BME280;63470;49.826;6.740;2023-11-21T10:39:08;100143.83;;;12.92;69.49
74722;BME280;63470;49.826;6.740;2023-11-21T10:41:40;100149.41;;;13.00;69.53
74722;BME280;63470;49.826;6.740;2023-11-21T10:44:16;100147.42;;;13.16;69.47
74722;BME280;63470;49.826;6.740;2023-11-21T10:46:49;100152.22;;;13.57;69.11
74722;BME280;63470;49.826;6.740;2023-11-21T10:49:22;100139.38;;;13.86;68.86
74722;BME280;63470;49.826;6.740;2023-11-21T10:51:43;100147.52;;;14.15;68.61
74722;BME280;63470;49.826;6.740;2023-11-21T10:54:13;100145.34;;;14.49;68.38
74722;BME280;63470;49.826;6.740;2023-11-21T10:56:45;100146.88;;;14.78;68.11
74722;BME280;63470;49.826;6.740;2023-11-21T10:59:15;100144.06;;;14.94;68.04
74722;BME280;63470;49.826;6.740;2023-11-21T11:01:45;100148.16;;;14.81;68.29
74722;BME280;63470;49.826;6.740;2023-11-21T11:04:19;100147.25;;;14.47;68.69
74722;BME280;63470;49.826;6.740;2023-11-21T11:06:57;100146.30;;;14.09;69.12
74722;BME280;63470;49.826;6.740;2023-11-21T11:09:20;100146.02;;;13.81;69.36
74722;BME280;63470;49.826;6.740;2023-11-21T11:11:46;100150.83;;;13.56;69.61
74722;BME280;63470;49.826;6.740;2023-11-21T11:14:19;100150.44;;;13.33;69.73
74722;BME280;63470;49.826;6.740;2023-11-21T11:16:48;100149.22;;;13.08;69.88
74722;BME280;63470;49.826;6.740;2023-11-21T11:19:17;100148.34;;;13.15;69.93
74722;BME280;63470;49.826;6.740;2023-11-21T11:27:15;100128.94;;;17.23;64.63
74722;BME280;63470;49.826;6.740;2023-11-21T11:32:12;100131.21;;;16.92;65.18
74722;BME280;63470;49.826;6.740;2023-11-21T11:34:31;100134.75;;;16.46;65.96
74722;BME280;63470;49.826;6.740;2023-11-21T11:36:58;100138.42;;;16.21;66.45
74722;BME280;63470;49.826;6.740;2023-11-21T11:39:40;100134.42;;;16.35;67.02
74722;BME280;63470;49.826;6.740;2023-11-21T11:42:01;100131.11;;;16.62;67.17
74722;BME280;63470;49.826;6.740;2023-11-21T11:44:46;100129.45;;;17.24;66.95
74722;BME280;63470;49.826;6.740;2023-11-21T11:46:56;100129.11;;;17.00;67.36
74722;BME280;63470;49.826;6.740;2023-11-21T11:49:28;100135.10;;;16.50;68.19
74722;BME280;63470;49.826;6.740;2023-11-21T11:54:35;100144.27;;;15.85;68.89
74722;BME280;63470;49.826;6.740;2023-11-21T11:56:54;100142.47;;;15.54;69.08
74722;BME280;63470;49.826;6.740;2023-11-21T11:59:24;100145.64;;;15.22;69.34
74722;BME280;63470;49.826;6.740;2023-11-21T12:01:57;100143.11;;;14.85;69.61
74722;BME280;63470;49.826;6.740;2023-11-21T12:04:35;100144.59;;;14.49;70.03
74722;BME280;63470;49.826;6.740;2023-11-21T12:07:04;100145.97;;;14.19;70.28
74722;BME280;63470;49.826;6.740;2023-11-21T12:09:32;100141.52;;;14.00;70.31
74722;BME280;63470;49.826;6.740;2023-11-21T12:12:02;100141.20;;;14.05;70.26
74722;BME280;63470;49.826;6.740;2023-11-21T12:14:34;100143.62;;;14.87;69.86
74722;BME280;63470;49.826;6.740;2023-11-21T12:17:05;100133.88;;;15.72;69.54
74722;BME280;63470;49.826;6.740;2023-11-21T12:19:33;100136.77;;;16.06;69.55
74722;BME280;63470;49.826;6.740;2023-11-21T12:21:59;100136.80;;;16.88;68.93
74722;BME280;63470;49.826;6.740;2023-11-21T12:24:32;100132.88;;;17.79;67.86
74722;BME280;63470;49.826;6.740;2023-11-21T12:27:04;100137.94;;;17.88;67.63
74722;BME280;63470;49.826;6.740;2023-11-21T12:29:31;100150.25;;;17.35;68.73
74722;BME280;63470;49.826;6.740;2023-11-21T12:32:00;100148.43;;;16.85;69.42
74722;BME280;63470;49.826;6.740;2023-11-21T12:34:31;100154.88;;;16.49;69.55
74722;BME280;63470;49.826;6.740;2023-11-21T12:37:02;100153.50;;;16.21;69.64
74722;BME280;63470;49.826;6.740;2023-11-21T12:39:31;100165.24;;;16.04;69.58
74722;BME280;63470;49.826;6.740;2023-11-21T12:42:03;100171.82;;;15.83;69.71
74722;BME280;63470;49.826;6.740;2023-11-21T12:44:32;100175.30;;;16.17;68.96
74722;BME280;63470;49.826;6.740;2023-11-21T12:47:07;100180.14;;;16.44;68.19
74722;BME280;63470;49.826;6.740;2023-11-21T12:49:42;100175.58;;;16.27;68.17
74722;BME280;63470;49.826;6.740;2023-11-21T12:52:09;100181.70;;;15.96;68.46
74722;BME280;63470;49.826;6.740;2023-11-21T12:54:38;100185.32;;;15.60;68.81
74722;BME280;63470;49.826;6.740;2023-11-21T12:57:08;100183.60;;;15.23;69.15
74722;BME280;63470;49.826;6.740;2023-11-21T12:59:35;100183.00;;;14.88;69.52
74722;BME280;63470;49.826;6.740;2023-11-21T13:02:07;100179.50;;;14.63;69.75
74722;BME280;63470;49.826;6.740;2023-11-21T13:04:35;100191.98;;;14.45;69.88
74722;BME280;63470;49.826;6.740;2023-11-21T13:07:15;100190.80;;;14.27;70.04
74722;BME280;63470;49.826;6.740;2023-11-21T13:09:36;100191.42;;;14.15;70.19
74722;BME280;63470;49.826;6.740;2023-11-21T13:12:11;100190.11;;;14.09;70.19
74722;BME280;63470;49.826;6.740;2023-11-21T13:14:42;100193.60;;;14.09;70.16
74722;BME280;63470;49.826;6.740;2023-11-21T13:17:08;100194.95;;;14.08;70.08
74722;BME280;63470;49.826;6.740;2023-11-21T13:19:38;100198.66;;;14.09;69.95
74722;BME280;63470;49.826;6.740;2023-11-21T13:22:11;100198.59;;;14.03;69.93
74722;BME280;63470;49.826;6.740;2023-11-21T13:24:39;100195.78;;;14.03;69.92
74722;BME280;63470;49.826;6.740;2023-11-21T13:27:11;100194.67;;;14.06;69.89
74722;BME280;63470;49.826;6.740;2023-11-21T13:29:40;100200.81;;;14.06;69.89
74722;BME280;63470;49.826;6.740;2023-11-21T13:32:12;100195.52;;;14.00;69.82